sensor_id;sensor_type;location;lat;lon;timestamp;pressure;altitude;pressure_sealevel;temperature;humidity
57192;BME280;43052;52.588;13.396;2022-08-30T00:00:08;101687.72;;;14.53;80.26
57192;BME280;43052;52.588;13.396;2022-08-30T00:02:53;101694.72;;;14.54;80.42
57192;BME280;43052;52.588;13.396;2022-08-30T00:05:19;101702.63;;;14.51;80.33
57192;BME280;43052;52.588;13.396;2022-08-30T00:07:44;101694.75;;;14.50;80.39
57192;BME280;43052;52.588;13.396;2022-08-30T00:10:10;101688.66;;;14.43;80.27
57192;BME280;43052;52.588;13.396;2022-08-30T00:12:35;101697.41;;;14.45;80.12
57192;BME280;43052;52.588;13.396;2022-08-30T00:15:01;101683.44;;;14.35;80.04
57192;BME280;43052;52.588;13.396;2022-08-30T00:17:27;101679.09;;;14.25;80.29
57192;BME280;43052;52.588;13.396;2022-08-30T00:19:52;101701.88;;;14.31;80.22
57192;BME280;43052;52.588;13.396;2022-08-30T00:22:17;101697.53;;;14.25;80.37
57192;BME280;43052;52.588;13.396;2022-08-30T00:24:42;101710.69;;;14.20;80.75
57192;BME280;43052;52.588;13.396;2022-08-30T00:27:08;101692.34;;;14.14;80.67
57192;BME280;43052;52.588;13.396;2022-08-30T00:29:33;101704.59;;;14.17;80.67
57192;BME280;43052;52.588;13.396;2022-08-30T00:31:58;101704.59;;;14.17;80.65
57192;BME280;43052;52.588;13.396;2022-08-30T00:34:25;101707.22;;;14.15;80.62
57192;BME280;43052;52.588;13.396;2022-08-30T00:36:50;101697.63;;;14.08;80.57
57192;BME280;43052;52.588;13.396;2022-08-30T00:39:15;101708.13;;;14.09;80.59
57192;BME280;43052;52.588;13.396;2022-08-30T00:41:40;101709.91;;;14.09;80.80
57192;BME280;43052;52.588;13.396;2022-08-30T00:44:06;101708.13;;;14.11;80.91
57192;BME280;43052;52.588;13.396;2022-08-30T00:46:31;101711.63;;;14.15;80.80
57192;BME280;43052;52.588;13.396;2022-08-30T00:49:02;101693.25;;;14.10;80.87
57192;BME280;43052;52.588;13.396;2022-08-30T00:51:29;101701.09;;;14.16;80.92
57192;BME280;43052;52.588;13.396;2022-08-30T00:53:55;101702.88;;;14.13;80.92
57192;BME280;43052;52.588;13.396;2022-08-30T00:56:23;101703.78;;;14.05;80.90
57192;BME280;43052;52.588;13.396;2022-08-30T00:58:51;101711.66;;;14.08;80.98
57192;BME280;43052;52.588;13.396;2022-08-30T01:01:17;101706.41;;;14.10;81.11
57192;BME280;43052;52.588;13.396;2022-08-30T01:03:43;101702.88;;;14.09;80.83
57192;BME280;43052;52.588;13.396;2022-08-30T01:06:09;101702.84;;;14.11;80.64
57192;BME280;43052;52.588;13.396;2022-08-30T01:08:34;101705.50;;;14.09;80.78
57192;BME280;43052;52.588;13.396;2022-08-30T01:11:00;101721.31;;;14.08;81.11
57192;BME280;43052;52.588;13.396;2022-08-30T01:13:28;101710.81;;;14.00;81.22
57192;BME280;43052;52.588;13.396;2022-08-30T01:15:54;101716.94;;;14.04;81.41
57192;BME280;43052;52.588;13.396;2022-08-30T01:18:20;101712.56;;;14.01;81.19
57192;BME280;43052;52.588;13.396;2022-08-30T01:23:28;101716.06;;;14.00;81.03
57192;BME280;43052;52.588;13.396;2022-08-30T01:25:54;101719.59;;;13.98;81.09
57192;BME280;43052;52.588;13.396;2022-08-30T01:28:23;101712.59;;;13.93;80.97
57192;BME280;43052;52.588;13.396;2022-08-30T01:30:48;101717.84;;;13.92;81.14
57192;BME280;43052;52.588;13.396;2022-08-30T01:33:14;101719.63;;;13.90;81.14
57192;BME280;43052;52.588;13.396;2022-08-30T01:35:45;101726.66;;;13.88;81.32
57192;BME280;43052;52.588;13.396;2022-08-30T01:38:12;101725.75;;;13.92;81.11
57192;BME280;43052;52.588;13.396;2022-08-30T01:40:38;101726.63;;;13.97;81.01
57192;BME280;43052;52.588;13.396;2022-08-30T01:43:05;101719.56;;;13.99;81.02
57192;BME280;43052;52.588;13.396;2022-08-30T01:45:31;101724.84;;;13.98;80.85
57192;BME280;43052;52.588;13.396;2022-08-30T01:47:56;101712.59;;;13.97;80.85
57192;BME280;43052;52.588;13.396;2022-08-30T01:50:21;101718.72;;;13.95;80.81
57192;BME280;43052;52.588;13.396;2022-08-30T01:52:46;101720.50;;;13.95;80.90
57192;BME280;43052;52.588;13.396;2022-08-30T01:55:12;101719.63;;;13.91;80.99
57192;BME280;43052;52.588;13.396;2022-08-30T01:57:37;101718.78;;;13.88;81.04
57192;BME280;43052;52.588;13.396;2022-08-30T02:00:05;101721.41;;;13.83;81.05
57192;BME280;43052;52.588;13.396;2022-08-30T02:02:30;101716.19;;;13.78;81.28
57192;BME280;43052;52.588;13.396;2022-08-30T02:04:55;101721.44;;;13.72;81.25
57192;BME280;43052;52.588;13.396;2022-08-30T02:07:22;101711.81;;;13.62;81.65
57192;BME280;43052;52.588;13.396;2022-08-30T02:09:47;101718.84;;;13.63;81.66
57192;BME280;43052;52.588;13.396;2022-08-30T02:12:13;101713.59;;;13.60;81.58
57192;BME280;43052;52.588;13.396;2022-08-30T02:14:38;101705.72;;;13.54;81.76
57192;BME280;43052;52.588;13.396;2022-08-30T02:17:05;101717.09;;;13.59;81.80
57192;BME280;43052;52.588;13.396;2022-08-30T02:19:31;101715.34;;;13.61;81.82
57192;BME280;43052;52.588;13.396;2022-08-30T02:21:56;101710.09;;;13.61;81.77
57192;BME280;43052;52.588;13.396;2022-08-30T02:24:22;101708.31;;;13.63;81.54
57192;BME280;43052;52.588;13.396;2022-08-30T02:26:47;101707.47;;;13.61;81.51
57192;BME280;43052;52.588;13.396;2022-08-30T02:29:12;101718.84;;;13.58;81.31
57192;BME280;43052;52.588;13.396;2022-08-30T02:31:38;101714.50;;;13.57;81.60
57192;BME280;43052;52.588;13.396;2022-08-30T02:34:03;101711.88;;;13.50;81.69
57192;BME280;43052;52.588;13.396;2022-08-30T02:36:28;101724.13;;;13.52;81.70
57192;BME280;43052;52.588;13.396;2022-08-30T02:38:53;101718.84;;;13.54;81.75
57192;BME280;43052;52.588;13.396;2022-08-30T02:41:19;101716.25;;;13.52;81.55
57192;BME280;43052;52.588;13.396;2022-08-30T02:43:45;101711.00;;;13.46;81.55
57192;BME280;43052;52.588;13.396;2022-08-30T02:46:11;101711.91;;;13.43;81.70
57192;BME280;43052;52.588;13.396;2022-08-30T02:48:36;101710.13;;;13.38;81.72
57192;BME280;43052;52.588;13.396;2022-08-30T02:51:07;101713.63;;;13.35;81.73
57192;BME280;43052;52.588;13.396;2022-08-30T02:53:33;101711.88;;;13.31;81.85
57192;BME280;43052;52.588;13.396;2022-08-30T02:55:58;101705.78;;;13.26;81.86
57192;BME280;43052;52.588;13.396;2022-08-30T02:58:23;101716.28;;;13.30;82.00
57192;BME280;43052;52.588;13.396;2022-08-30T03:00:48;101715.41;;;13.28;81.73
57192;BME280;43052;52.588;13.396;2022-08-30T03:03:14;101712.78;;;13.24;81.95
57192;BME280;43052;52.588;13.396;2022-08-30T03:05:39;101710.16;;;13.22;81.88
57192;BME280;43052;52.588;13.396;2022-08-30T03:08:04;101707.53;;;13.19;81.82
57192;BME280;43052;52.588;13.396;2022-08-30T03:10:30;101704.03;;;13.12;82.20
57192;BME280;43052;52.588;13.396;2022-08-30T03:12:56;101704.91;;;13.10;82.29
57192;BME280;43052;52.588;13.396;2022-08-30T03:15:22;101683.91;;;12.96;82.29
57192;BME280;43052;52.588;13.396;2022-08-30T03:17:50;101703.16;;;13.07;82.25
57192;BME280;43052;52.588;13.396;2022-08-30T03:20:15;101714.50;;;13.14;82.11
57192;BME280;43052;52.588;13.396;2022-08-30T03:22:40;101706.66;;;13.17;81.99
57192;BME280;43052;52.588;13.396;2022-08-30T03:25:06;101712.78;;;13.18;82.13
57192;BME280;43052;52.588;13.396;2022-08-30T03:27:33;101694.41;;;13.07;82.26
57192;BME280;43052;52.588;13.396;2022-08-30T03:29:58;101711.00;;;13.15;82.32
57192;BME280;43052;52.588;13.396;2022-08-30T03:32:23;101710.16;;;13.16;82.46
57192;BME280;43052;52.588;13.396;2022-08-30T03:34:48;101723.28;;;13.16;82.40
57192;BME280;43052;52.588;13.396;2022-08-30T03:37:14;101707.53;;;13.14;82.43
57192;BME280;43052;52.588;13.396;2022-08-30T03:39:39;101717.13;;;13.19;82.44
57192;BME280;43052;52.588;13.396;2022-08-30T03:42:05;101718.88;;;13.20;82.37
57192;BME280;43052;52.588;13.396;2022-08-30T03:44:30;101722.41;;;13.22;82.45
57192;BME280;43052;52.588;13.396;2022-08-30T03:46:56;101720.63;;;13.25;82.38
57192;BME280;43052;52.588;13.396;2022-08-30T03:49:21;101719.78;;;13.25;82.26
57192;BME280;43052;52.588;13.396;2022-08-30T03:51:46;101727.66;;;13.29;82.09
57192;BME280;43052;52.588;13.396;2022-08-30T03:54:13;101730.25;;;13.32;82.26
57192;BME280;43052;52.588;13.396;2022-08-30T03:56:38;101730.31;;;13.39;82.31
57192;BME280;43052;52.588;13.396;2022-08-30T03:59:04;101731.16;;;13.42;82.22
57192;BME280;43052;52.588;13.396;2022-08-30T04:01:30;101723.28;;;13.44;82.21
57192;BME280;43052;52.588;13.396;2022-08-30T04:03:55;101731.16;;;13.47;82.17
57192;BME280;43052;52.588;13.396;2022-08-30T04:06:20;101734.63;;;13.49;82.26
57192;BME280;43052;52.588;13.396;2022-08-30T04:08:46;101727.63;;;13.56;82.16
57192;BME280;43052;52.588;13.396;2022-08-30T04:11:12;101731.09;;;13.64;81.89
57192;BME280;43052;52.588;13.396;2022-08-30T04:13:38;101731.09;;;13.67;81.87
57192;BME280;43052;52.588;13.396;2022-08-30T04:16:04;101725.84;;;13.70;81.81
57192;BME280;43052;52.588;13.396;2022-08-30T04:18:29;101731.94;;;13.80;82.00
57192;BME280;43052;52.588;13.396;2022-08-30T04:20:54;101725.75;;;13.87;82.14
57192;BME280;43052;52.588;13.396;2022-08-30T04:23:20;101735.38;;;13.94;81.66
57192;BME280;43052;52.588;13.396;2022-08-30T04:25:45;101730.97;;;14.01;81.87
57192;BME280;43052;52.588;13.396;2022-08-30T04:28:11;101735.31;;;14.12;81.54
57192;BME280;43052;52.588;13.396;2022-08-30T04:30:41;101737.91;;;14.21;81.50
57192;BME280;43052;52.588;13.396;2022-08-30T04:33:07;101733.50;;;14.28;81.37
57192;BME280;43052;52.588;13.396;2022-08-30T04:35:32;101741.31;;;14.35;81.16
57192;BME280;43052;52.588;13.396;2022-08-30T04:37:58;101741.28;;;14.41;80.95
57192;BME280;43052;52.588;13.396;2022-08-30T04:40:24;101744.78;;;14.44;80.90
57192;BME280;43052;52.588;13.396;2022-08-30T04:42:49;101724.59;;;14.42;80.78
57192;BME280;43052;52.588;13.396;2022-08-30T04:45:18;101737.69;;;14.56;80.84
57192;BME280;43052;52.588;13.396;2022-08-30T04:47:44;101739.44;;;14.57;80.81
57192;BME280;43052;52.588;13.396;2022-08-30T04:50:12;101742.03;;;14.67;80.81
57192;BME280;43052;52.588;13.396;2022-08-30T04:52:38;101744.63;;;14.75;80.77
57192;BME280;43052;52.588;13.396;2022-08-30T04:55:03;101746.34;;;14.79;80.56
57192;BME280;43052;52.588;13.396;2022-08-30T04:57:29;101744.50;;;14.87;80.60
57192;BME280;43052;52.588;13.396;2022-08-30T04:59:54;101740.91;;;14.97;80.50
57192;BME280;43052;52.588;13.396;2022-08-30T05:02:20;101748.72;;;15.10;80.26
57192;BME280;43052;52.588;13.396;2022-08-30T05:04:45;101745.16;;;15.17;80.04
57192;BME280;43052;52.588;13.396;2022-08-30T05:07:30;101740.69;;;15.25;79.91
57192;BME280;43052;52.588;13.396;2022-08-30T05:09:56;101738.84;;;15.33;79.61
57192;BME280;43052;52.588;13.396;2022-08-30T05:12:21;101749.28;;;15.43;79.52
57192;BME280;43052;52.588;13.396;2022-08-30T05:14:47;101749.22;;;15.50;79.50
57192;BME280;43052;52.588;13.396;2022-08-30T05:17:12;101741.22;;;15.58;79.42
57192;BME280;43052;52.588;13.396;2022-08-30T05:19:37;101747.28;;;15.66;79.32
57192;BME280;43052;52.588;13.396;2022-08-30T05:22:03;101748.94;;;15.77;79.15
57192;BME280;43052;52.588;13.396;2022-08-30T05:24:28;101761.19;;;15.86;79.31
57192;BME280;43052;52.588;13.396;2022-08-30T05:26:53;101761.06;;;15.95;79.03
57192;BME280;43052;52.588;13.396;2022-08-30T05:29:19;101754.00;;;15.98;78.52
57192;BME280;43052;52.588;13.396;2022-08-30T05:31:44;101767.84;;;16.14;78.47
57192;BME280;43052;52.588;13.396;2022-08-30T05:34:10;101765.13;;;16.22;78.54
57192;BME280;43052;52.588;13.396;2022-08-30T05:36:36;101762.34;;;16.32;78.27
57192;BME280;43052;52.588;13.396;2022-08-30T05:39:06;101762.31;;;16.35;78.26
57192;BME280;43052;52.588;13.396;2022-08-30T05:41:31;101769.91;;;16.56;77.93
57192;BME280;43052;52.588;13.396;2022-08-30T05:43:58;101764.47;;;16.67;77.56
57192;BME280;43052;52.588;13.396;2022-08-30T05:46:25;101751.06;;;16.83;76.91
57192;BME280;43052;52.588;13.396;2022-08-30T05:48:54;101765.78;;;16.99;76.49
57192;BME280;43052;52.588;13.396;2022-08-30T05:51:23;101764.66;;;17.14;76.42
57192;BME280;43052;52.588;13.396;2022-08-30T05:53:51;101765.28;;;17.29;75.90
57192;BME280;43052;52.588;13.396;2022-08-30T05:56:19;101767.81;;;17.36;75.67
57192;BME280;43052;52.588;13.396;2022-08-30T05:58:45;101762.31;;;17.47;75.37
57192;BME280;43052;52.588;13.396;2022-08-30T06:01:28;101766.59;;;17.54;75.09
57192;BME280;43052;52.588;13.396;2022-08-30T06:03:54;101764.75;;;17.58;74.84
57192;BME280;43052;52.588;13.396;2022-08-30T06:06:20;101769.91;;;17.66;74.80
57192;BME280;43052;52.588;13.396;2022-08-30T06:08:45;101767.00;;;17.78;74.74
57192;BME280;43052;52.588;13.396;2022-08-30T06:11:15;101773.00;;;17.86;74.61
57192;BME280;43052;52.588;13.396;2022-08-30T06:13:41;101773.75;;;17.96;74.43
57192;BME280;43052;52.588;13.396;2022-08-30T06:16:10;101780.59;;;18.05;74.18
57192;BME280;43052;52.588;13.396;2022-08-30T06:18:36;101773.28;;;18.18;74.15
57192;BME280;43052;52.588;13.396;2022-08-30T06:21:01;101781.00;;;18.29;73.88
57192;BME280;43052;52.588;13.396;2022-08-30T06:23:27;101773.69;;;18.40;73.55
57192;BME280;43052;52.588;13.396;2022-08-30T06:25:53;101775.19;;;18.52;73.03
57192;BME280;43052;52.588;13.396;2022-08-30T06:28:18;101776.72;;;18.62;72.90
57192;BME280;43052;52.588;13.396;2022-08-30T06:30:43;101773.06;;;18.68;72.40
57192;BME280;43052;52.588;13.396;2022-08-30T06:33:09;101765.06;;;18.71;72.23
57192;BME280;43052;52.588;13.396;2022-08-30T06:35:35;101773.41;;;18.90;72.32
57192;BME280;43052;52.588;13.396;2022-08-30T06:38:00;101777.66;;;18.99;71.93
57192;BME280;43052;52.588;13.396;2022-08-30T06:40:26;101777.28;;;19.15;71.80
57192;BME280;43052;52.588;13.396;2022-08-30T06:42:51;101779.53;;;19.30;71.29
57192;BME280;43052;52.588;13.396;2022-08-30T06:45:17;101789.09;;;19.36;70.69
57192;BME280;43052;52.588;13.396;2022-08-30T06:47:42;101772.47;;;19.29;70.74
57192;BME280;43052;52.588;13.396;2022-08-30T06:50:09;101792.47;;;19.42;70.37
57192;BME280;43052;52.588;13.396;2022-08-30T06:52:34;101782.91;;;19.37;70.53
57192;BME280;43052;52.588;13.396;2022-08-30T06:54:59;101791.59;;;19.42;70.52
57192;BME280;43052;52.588;13.396;2022-08-30T06:57:25;101773.31;;;19.31;70.43
57192;BME280;43052;52.588;13.396;2022-08-30T06:59:54;101794.22;;;19.44;70.81
57192;BME280;43052;52.588;13.396;2022-08-30T07:02:20;101797.66;;;19.47;70.66
57192;BME280;43052;52.588;13.396;2022-08-30T07:04:45;101798.44;;;19.51;70.61
57192;BME280;43052;52.588;13.396;2022-08-30T07:07:12;101794.75;;;19.56;70.31
57192;BME280;43052;52.588;13.396;2022-08-30T07:09:37;101798.19;;;19.60;70.12
57192;BME280;43052;52.588;13.396;2022-08-30T07:12:10;101797.38;;;19.58;69.67
57192;BME280;43052;52.588;13.396;2022-08-30T07:14:36;101782.53;;;19.51;69.63
57192;BME280;43052;52.588;13.396;2022-08-30T07:17:02;101799.41;;;19.47;70.00
57192;BME280;43052;52.588;13.396;2022-08-30T07:19:48;101798.22;;;19.58;69.56
57192;BME280;43052;52.588;13.396;2022-08-30T07:22:13;101799.78;;;19.67;69.60
57192;BME280;43052;52.588;13.396;2022-08-30T07:24:38;101800.50;;;19.72;69.87
57192;BME280;43052;52.588;13.396;2022-08-30T07:27:04;101800.25;;;19.82;69.12
57192;BME280;43052;52.588;13.396;2022-08-30T07:29:29;101817.84;;;19.84;69.38
57192;BME280;43052;52.588;13.396;2022-08-30T07:31:54;101809.94;;;19.83;69.29
57192;BME280;43052;52.588;13.396;2022-08-30T07:34:20;101813.56;;;19.80;69.20
57192;BME280;43052;52.588;13.396;2022-08-30T07:36:45;101811.69;;;19.85;68.74
57192;BME280;43052;52.588;13.396;2022-08-30T07:39:11;101813.09;;;19.99;68.70
57192;BME280;43052;52.588;13.396;2022-08-30T07:41:36;101808.03;;;20.21;68.42
57192;BME280;43052;52.588;13.396;2022-08-30T07:44:03;101814.09;;;20.55;67.72
57192;BME280;43052;52.588;13.396;2022-08-30T07:46:28;101812.66;;;20.73;67.16
57192;BME280;43052;52.588;13.396;2022-08-30T07:48:54;101820.25;;;20.85;66.45
57192;BME280;43052;52.588;13.396;2022-08-30T07:51:22;101813.53;;;20.75;66.07
57192;BME280;43052;52.588;13.396;2022-08-30T07:53:48;101812.53;;;20.47;66.24
57192;BME280;43052;52.588;13.396;2022-08-30T07:56:14;101826.78;;;20.45;65.79
57192;BME280;43052;52.588;13.396;2022-08-30T07:58:39;101822.16;;;20.22;66.56
57192;BME280;43052;52.588;13.396;2022-08-30T08:01:07;101829.00;;;20.30;66.88
57192;BME280;43052;52.588;13.396;2022-08-30T08:03:32;101828.31;;;20.24;66.15
57192;BME280;43052;52.588;13.396;2022-08-30T08:06:01;101832.50;;;20.31;66.64
57192;BME280;43052;52.588;13.396;2022-08-30T08:08:26;101830.56;;;20.38;65.08
57192;BME280;43052;52.588;13.396;2022-08-30T08:10:51;101826.94;;;20.40;65.97
57192;BME280;43052;52.588;13.396;2022-08-30T08:13:17;101828.13;;;20.60;64.88
57192;BME280;43052;52.588;13.396;2022-08-30T08:15:42;101826.16;;;20.66;64.99
57192;BME280;43052;52.588;13.396;2022-08-30T08:18:07;101830.31;;;20.75;64.62
57192;BME280;43052;52.588;13.396;2022-08-30T08:20:33;101829.94;;;20.88;64.71
57192;BME280;43052;52.588;13.396;2022-08-30T08:22:59;101834.34;;;20.89;64.19
57192;BME280;43052;52.588;13.396;2022-08-30T08:25:25;101832.69;;;20.85;64.22
57192;BME280;43052;52.588;13.396;2022-08-30T08:27:51;101828.00;;;20.63;64.02
57192;BME280;43052;52.588;13.396;2022-08-30T08:30:17;101840.53;;;20.29;64.51
57192;BME280;43052;52.588;13.396;2022-08-30T08:32:43;101817.69;;;19.92;65.04
57192;BME280;43052;52.588;13.396;2022-08-30T08:35:08;101835.53;;;19.87;65.73
57192;BME280;43052;52.588;13.396;2022-08-30T08:37:36;101853.44;;;19.79;66.13
57192;BME280;43052;52.588;13.396;2022-08-30T08:40:02;101838.66;;;19.68;66.25
57192;BME280;43052;52.588;13.396;2022-08-30T08:42:57;101858.75;;;19.77;66.09
57192;BME280;43052;52.588;13.396;2022-08-30T08:48:29;101864.59;;;19.57;66.84
57192;BME280;43052;52.588;13.396;2022-08-30T08:50:56;101863.84;;;19.52;66.85
57192;BME280;43052;52.588;13.396;2022-08-30T08:53:43;101864.72;;;19.52;67.02
57192;BME280;43052;52.588;13.396;2022-08-30T08:56:12;101870.69;;;19.61;66.80
57192;BME280;43052;52.588;13.396;2022-08-30T08:58:47;101872.50;;;19.58;66.75
57192;BME280;43052;52.588;13.396;2022-08-30T09:01:15;101863.84;;;19.52;66.93
57192;BME280;43052;52.588;13.396;2022-08-30T09:03:41;101871.81;;;19.52;66.94
57192;BME280;43052;52.588;13.396;2022-08-30T09:06:22;101876.06;;;19.57;67.09
57192;BME280;43052;52.588;13.396;2022-08-30T09:08:49;101878.91;;;19.84;66.90
57192;BME280;43052;52.588;13.396;2022-08-30T09:11:20;101875.31;;;20.20;66.17
57192;BME280;43052;52.588;13.396;2022-08-30T09:13:47;101862.94;;;20.50;65.46
57192;BME280;43052;52.588;13.396;2022-08-30T09:16:45;101872.75;;;21.07;64.17
57192;BME280;43052;52.588;13.396;2022-08-30T09:19:11;101870.50;;;21.48;63.29
57192;BME280;43052;52.588;13.396;2022-08-30T09:21:56;101869.56;;;21.51;61.68
57192;BME280;43052;52.588;13.396;2022-08-30T09:24:21;101868.00;;;21.43;61.59
57192;BME280;43052;52.588;13.396;2022-08-30T09:26:46;101867.91;;;21.47;61.28
57192;BME280;43052;52.588;13.396;2022-08-30T09:29:16;101872.03;;;21.55;60.42
57192;BME280;43052;52.588;13.396;2022-08-30T09:31:50;101868.44;;;21.56;61.17
57192;BME280;43052;52.588;13.396;2022-08-30T09:34:19;101874.31;;;21.41;61.42
57192;BME280;43052;52.588;13.396;2022-08-30T09:36:48;101872.97;;;21.01;62.06
57192;BME280;43052;52.588;13.396;2022-08-30T09:39:30;101866.28;;;20.57;63.09
57192;BME280;43052;52.588;13.396;2022-08-30T09:42:18;101872.25;;;20.64;63.97
57192;BME280;43052;52.588;13.396;2022-08-30T09:44:43;101872.97;;;21.01;63.21
57192;BME280;43052;52.588;13.396;2022-08-30T09:47:21;101873.78;;;21.29;62.23
57192;BME280;43052;52.588;13.396;2022-08-30T09:50:02;101852.94;;;21.44;62.35
57192;BME280;43052;52.588;13.396;2022-08-30T09:52:44;101869.34;;;21.57;62.07
57192;BME280;43052;52.588;13.396;2022-08-30T09:55:44;101872.75;;;21.87;60.94
57192;BME280;43052;52.588;13.396;2022-08-30T10:01:05;101869.91;;;22.65;59.73
57192;BME280;43052;52.588;13.396;2022-08-30T10:03:43;101858.91;;;22.96;58.32
57192;BME280;43052;52.588;13.396;2022-08-30T10:14:38;101845.47;;;23.22;53.91
57192;BME280;43052;52.588;13.396;2022-08-30T10:20:01;101853.81;;;23.35;54.70
57192;BME280;43052;52.588;13.396;2022-08-30T10:22:44;101858.44;;;23.52;54.44
57192;BME280;43052;52.588;13.396;2022-08-30T10:25:16;101853.03;;;23.53;54.19
57192;BME280;43052;52.588;13.396;2022-08-30T10:27:57;101855.03;;;23.48;54.50
57192;BME280;43052;52.588;13.396;2022-08-30T10:30:27;101857.97;;;23.42;53.94
57192;BME280;43052;52.588;13.396;2022-08-30T10:32:59;101853.56;;;23.41;54.99
57192;BME280;43052;52.588;13.396;2022-08-30T10:35:28;101853.56;;;23.61;54.96
57192;BME280;43052;52.588;13.396;2022-08-30T10:38:09;101860.09;;;23.75;54.07
57192;BME280;43052;52.588;13.396;2022-08-30T10:40:37;101856.09;;;23.65;53.40
57192;BME280;43052;52.588;13.396;2022-08-30T10:43:36;101853.44;;;23.44;54.08
57192;BME280;43052;52.588;13.396;2022-08-30T10:46:21;101842.56;;;23.49;54.10
57192;BME280;43052;52.588;13.396;2022-08-30T10:48:48;101849.91;;;23.64;54.02
57192;BME280;43052;52.588;13.396;2022-08-30T10:51:21;101846.34;;;23.84;53.84
57192;BME280;43052;52.588;13.396;2022-08-30T10:53:54;101844.53;;;24.05;53.79
57192;BME280;43052;52.588;13.396;2022-08-30T10:56:24;101849.13;;;24.22;53.59
57192;BME280;43052;52.588;13.396;2022-08-30T10:58:51;101839.59;;;24.36;53.39
57192;BME280;43052;52.588;13.396;2022-08-30T11:01:59;101847.16;;;24.64;52.11
57192;BME280;43052;52.588;13.396;2022-08-30T11:04:49;101835.78;;;24.80;51.05
57192;BME280;43052;52.588;13.396;2022-08-30T11:07:31;101844.28;;;24.88;51.31
57192;BME280;43052;52.588;13.396;2022-08-30T11:10:24;101840.00;;;25.21;50.37
57192;BME280;43052;52.588;13.396;2022-08-30T11:12:56;101834.75;;;25.54;50.13
57192;BME280;43052;52.588;13.396;2022-08-30T11:15:26;101828.75;;;25.67;49.00
57192;BME280;43052;52.588;13.396;2022-08-30T11:18:10;101828.06;;;25.63;47.77
57192;BME280;43052;52.588;13.396;2022-08-30T11:20:47;101824.41;;;25.11;48.03
57192;BME280;43052;52.588;13.396;2022-08-30T11:23:24;101821.78;;;24.92;48.34
57192;BME280;43052;52.588;13.396;2022-08-30T11:26:05;101827.81;;;25.15;48.61
57192;BME280;43052;52.588;13.396;2022-08-30T11:33:52;101825.28;;;25.29;48.05
57192;BME280;43052;52.588;13.396;2022-08-30T11:39:09;101808.31;;;25.48;47.94
57192;BME280;43052;52.588;13.396;2022-08-30T11:41:44;101802.25;;;25.44;47.68
57192;BME280;43052;52.588;13.396;2022-08-30T11:46:52;101804.44;;;25.18;46.47
57192;BME280;43052;52.588;13.396;2022-08-30T11:54:57;101805.25;;;24.84;47.78
57192;BME280;43052;52.588;13.396;2022-08-30T11:57:45;101799.34;;;24.95;47.52
57192;BME280;43052;52.588;13.396;2022-08-30T12:00:33;101794.91;;;25.13;47.42
57192;BME280;43052;52.588;13.396;2022-08-30T12:10:51;101802.59;;;25.37;46.40
57192;BME280;43052;52.588;13.396;2022-08-30T12:16:08;101784.06;;;25.16;45.91
57192;BME280;43052;52.588;13.396;2022-08-30T12:18:41;101794.09;;;25.28;46.61
57192;BME280;43052;52.588;13.396;2022-08-30T12:21:22;101790.59;;;25.45;46.25
57192;BME280;43052;52.588;13.396;2022-08-30T12:23:56;101791.88;;;25.72;46.13
57192;BME280;43052;52.588;13.396;2022-08-30T12:28:48;101784.47;;;25.77;44.66
57192;BME280;43052;52.588;13.396;2022-08-30T12:31:24;101779.28;;;25.74;44.95
57192;BME280;43052;52.588;13.396;2022-08-30T12:33:56;101773.28;;;25.86;44.70
57192;BME280;43052;52.588;13.396;2022-08-30T12:36:33;101775.06;;;25.86;44.82
57192;BME280;43052;52.588;13.396;2022-08-30T12:39:12;101775.19;;;26.00;44.52
57192;BME280;43052;52.588;13.396;2022-08-30T12:41:38;101763.91;;;26.11;44.69
57192;BME280;43052;52.588;13.396;2022-08-30T12:44:06;101763.72;;;26.30;44.26
57192;BME280;43052;52.588;13.396;2022-08-30T12:46:33;101757.75;;;26.09;42.41
57192;BME280;43052;52.588;13.396;2022-08-30T12:48:59;101761.06;;;25.96;43.96
57192;BME280;43052;52.588;13.396;2022-08-30T12:51:43;101762.88;;;26.14;43.80
57192;BME280;43052;52.588;13.396;2022-08-30T12:54:21;101765.44;;;26.15;43.17
57192;BME280;43052;52.588;13.396;2022-08-30T12:56:55;101755.34;;;26.20;43.47
57192;BME280;43052;52.588;13.396;2022-08-30T12:59:44;101757.00;;;26.39;43.54
57192;BME280;43052;52.588;13.396;2022-08-30T13:02:12;101750.44;;;26.45;43.13
57192;BME280;43052;52.588;13.396;2022-08-30T13:04:38;101754.47;;;26.52;43.02
57192;BME280;43052;52.588;13.396;2022-08-30T13:07:03;101751.53;;;26.56;42.08
57192;BME280;43052;52.588;13.396;2022-08-30T13:09:40;101749.00;;;26.69;42.10
57192;BME280;43052;52.588;13.396;2022-08-30T13:12:22;101744.66;;;26.67;42.39
57192;BME280;43052;52.588;13.396;2022-08-30T13:14:48;101740.44;;;26.47;42.40
57192;BME280;43052;52.588;13.396;2022-08-30T13:23:08;101738.84;;;26.12;42.37
57192;BME280;43052;52.588;13.396;2022-08-30T13:25:35;101742.75;;;25.89;43.48
57192;BME280;43052;52.588;13.396;2022-08-30T13:28:03;101743.34;;;25.78;43.58
57192;BME280;43052;52.588;13.396;2022-08-30T13:30:30;101739.91;;;25.76;44.13
57192;BME280;43052;52.588;13.396;2022-08-30T13:32:56;101738.34;;;25.88;44.28
57192;BME280;43052;52.588;13.396;2022-08-30T13:35:21;101742.50;;;25.93;43.84
57192;BME280;43052;52.588;13.396;2022-08-30T13:37:47;101731.94;;;25.90;43.39
57192;BME280;43052;52.588;13.396;2022-08-30T13:40:13;101739.09;;;25.74;43.96
57192;BME280;43052;52.588;13.396;2022-08-30T13:42:39;101729.63;;;25.50;43.69